sensor_id;sensor_type;location;lat;lon;timestamp;P1;durP1;ratioP1;P2;durP2;ratioP2
4385;SDS011;2207;53.540;10.042;2024-03-23T00:55:42;26.43;;;4.17;;
4385;SDS011;2207;53.540;10.042;2024-03-23T00:58:08;24.07;;;3.87;;
4385;SDS011;2207;53.540;10.042;2024-03-23T01:00:35;28.67;;;5.33;;
4385;SDS011;2207;53.540;10.042;2024-03-23T01:03:01;35.60;;;5.43;;
4385;SDS011;2207;53.540;10.042;2024-03-23T01:05:28;28.20;;;5.20;;
4385;SDS011;2207;53.540;10.042;2024-03-23T01:07:54;27.53;;;4.70;;
4385;SDS011;2207;53.540;10.042;2024-03-23T01:10:22;25.83;;;4.63;;
4385;SDS011;2207;53.540;10.042;2024-03-23T01:12:48;35.07;;;5.17;;
4385;SDS011;2207;53.540;10.042;2024-03-23T01:15:15;25.10;;;5.10;;
4385;SDS011;2207;53.540;10.042;2024-03-23T01:17:41;36.67;;;5.30;;
4385;SDS011;2207;53.540;10.042;2024-03-23T01:20:08;33.20;;;4.63;;
4385;SDS011;2207;53.540;10.042;2024-03-23T01:22:34;35.23;;;5.17;;
4385;SDS011;2207;53.540;10.042;2024-03-23T01:25:01;23.97;;;3.83;;
4385;SDS011;2207;53.540;10.042;2024-03-23T01:27:28;34.43;;;6.03;;
4385;SDS011;2207;53.540;10.042;2024-03-23T01:29:55;36.30;;;5.13;;
4385;SDS011;2207;53.540;10.042;2024-03-23T01:32:21;28.67;;;5.83;;
4385;SDS011;2207;53.540;10.042;2024-03-23T01:34:48;29.30;;;4.80;;
4385;SDS011;2207;53.540;10.042;2024-03-23T01:37:14;24.57;;;4.53;;
4385;SDS011;2207;53.540;10.042;2024-03-23T01:39:41;42.77;;;5.07;;
4385;SDS011;2207;53.540;10.042;2024-03-23T01:42:06;29.70;;;5.23;;
4385;SDS011;2207;53.540;10.042;2024-03-23T01:44:35;39.17;;;5.53;;
4385;SDS011;2207;53.540;10.042;2024-03-23T01:47:00;19.57;;;4.30;;
4385;SDS011;2207;53.540;10.042;2024-03-23T01:49:28;39.30;;;5.67;;
4385;SDS011;2207;53.540;10.042;2024-03-23T01:51:53;24.63;;;4.77;;
4385;SDS011;2207;53.540;10.042;2024-03-23T01:54:20;31.90;;;4.80;;
4385;SDS011;2207;53.540;10.042;2024-03-23T01:56:48;30.07;;;5.00;;
4385;SDS011;2207;53.540;10.042;2024-03-23T01:59:15;30.10;;;5.30;;
4385;SDS011;2207;53.540;10.042;2024-03-23T02:01:42;27.77;;;4.40;;
4385;SDS011;2207;53.540;10.042;2024-03-23T02:04:09;25.07;;;4.60;;
4385;SDS011;2207;53.540;10.042;2024-03-23T02:06:35;33.17;;;5.00;;
4385;SDS011;2207;53.540;10.042;2024-03-23T02:09:02;27.83;;;3.93;;
4385;SDS011;2207;53.540;10.042;2024-03-23T02:11:28;34.07;;;5.10;;
4385;SDS011;2207;53.540;10.042;2024-03-23T02:13:55;25.33;;;4.80;;
4385;SDS011;2207;53.540;10.042;2024-03-23T02:16:24;22.83;;;4.43;;
4385;SDS011;2207;53.540;10.042;2024-03-23T02:18:52;28.10;;;5.40;;
4385;SDS011;2207;53.540;10.042;2024-03-23T02:21:20;31.07;;;4.67;;
4385;SDS011;2207;53.540;10.042;2024-03-23T02:23:48;29.10;;;4.77;;
4385;SDS011;2207;53.540;10.042;2024-03-23T02:26:14;34.37;;;4.67;;
4385;SDS011;2207;53.540;10.042;2024-03-23T02:28:42;28.97;;;4.60;;
4385;SDS011;2207;53.540;10.042;2024-03-23T02:31:08;28.13;;;4.83;;
4385;SDS011;2207;53.540;10.042;2024-03-23T02:33:34;37.10;;;4.93;;
4385;SDS011;2207;53.540;10.042;2024-03-23T02:36:03;21.20;;;3.97;;
4385;SDS011;2207;53.540;10.042;2024-03-23T02:38:30;29.60;;;4.70;;
4385;SDS011;2207;53.540;10.042;2024-03-23T02:41:02;24.93;;;4.00;;
4385;SDS011;2207;53.540;10.042;2024-03-23T02:43:29;29.00;;;4.90;;
4385;SDS011;2207;53.540;10.042;2024-03-23T02:45:55;24.63;;;5.03;;
4385;SDS011;2207;53.540;10.042;2024-03-23T02:48:22;25.40;;;5.43;;
4385;SDS011;2207;53.540;10.042;2024-03-23T02:50:48;30.70;;;5.30;;
4385;SDS011;2207;53.540;10.042;2024-03-23T02:53:15;34.97;;;5.13;;
4385;SDS011;2207;53.540;10.042;2024-03-23T02:55:41;30.77;;;4.77;;
4385;SDS011;2207;53.540;10.042;2024-03-23T02:58:09;40.40;;;5.73;;
4385;SDS011;2207;53.540;10.042;2024-03-23T03:00:35;38.17;;;5.10;;
4385;SDS011;2207;53.540;10.042;2024-03-23T03:03:02;35.93;;;5.70;;
4385;SDS011;2207;53.540;10.042;2024-03-23T03:05:28;38.80;;;5.97;;
4385;SDS011;2207;53.540;10.042;2024-03-23T03:07:55;36.87;;;5.80;;
4385;SDS011;2207;53.540;10.042;2024-03-23T03:10:21;33.00;;;4.97;;
4385;SDS011;2207;53.540;10.042;2024-03-23T03:12:47;38.63;;;5.30;;
4385;SDS011;2207;53.540;10.042;2024-03-23T03:15:15;27.67;;;4.67;;
4385;SDS011;2207;53.540;10.042;2024-03-23T03:17:42;33.40;;;5.43;;
4385;SDS011;2207;53.540;10.042;2024-03-23T03:20:08;28.07;;;4.57;;
4385;SDS011;2207;53.540;10.042;2024-03-23T03:22:38;29.57;;;4.33;;
4385;SDS011;2207;53.540;10.042;2024-03-23T03:25:05;22.07;;;4.60;;
4385;SDS011;2207;53.540;10.042;2024-03-23T03:27:32;33.67;;;5.43;;
4385;SDS011;2207;53.540;10.042;2024-03-23T03:29:59;32.73;;;4.93;;
4385;SDS011;2207;53.540;10.042;2024-03-23T03:32:29;24.33;;;4.80;;
4385;SDS011;2207;53.540;10.042;2024-03-23T03:34:54;29.70;;;4.60;;
4385;SDS011;2207;53.540;10.042;2024-03-23T03:37:21;28.47;;;4.60;;
4385;SDS011;2207;53.540;10.042;2024-03-23T03:39:47;20.03;;;4.50;;
4385;SDS011;2207;53.540;10.042;2024-03-23T03:42:14;31.87;;;4.70;;
4385;SDS011;2207;53.540;10.042;2024-03-23T03:44:40;23.77;;;5.00;;
4385;SDS011;2207;53.540;10.042;2024-03-23T03:47:07;20.90;;;4.00;;
4385;SDS011;2207;53.540;10.042;2024-03-23T03:49:35;31.83;;;4.80;;
4385;SDS011;2207;53.540;10.042;2024-03-23T03:52:04;27.57;;;4.57;;
4385;SDS011;2207;53.540;10.042;2024-03-23T03:54:32;26.37;;;4.10;;
4385;SDS011;2207;53.540;10.042;2024-03-23T03:56:59;32.13;;;5.50;;
4385;SDS011;2207;53.540;10.042;2024-03-23T03:59:25;30.50;;;4.90;;
4385;SDS011;2207;53.540;10.042;2024-03-23T04:01:52;27.50;;;4.17;;
4385;SDS011;2207;53.540;10.042;2024-03-23T04:04:18;31.40;;;4.23;;
4385;SDS011;2207;53.540;10.042;2024-03-23T04:06:47;29.13;;;4.90;;
4385;SDS011;2207;53.540;10.042;2024-03-23T04:09:12;28.30;;;4.47;;
4385;SDS011;2207;53.540;10.042;2024-03-23T04:11:40;28.13;;;5.70;;
4385;SDS011;2207;53.540;10.042;2024-03-23T04:14:06;23.93;;;4.60;;
4385;SDS011;2207;53.540;10.042;2024-03-23T04:16:33;23.10;;;5.13;;
4385;SDS011;2207;53.540;10.042;2024-03-23T04:19:00;26.83;;;6.00;;
4385;SDS011;2207;53.540;10.042;2024-03-23T04:21:27;25.60;;;4.37;;
4385;SDS011;2207;53.540;10.042;2024-03-23T04:23:54;32.03;;;5.57;;
4385;SDS011;2207;53.540;10.042;2024-03-23T04:26:21;29.10;;;5.33;;
4385;SDS011;2207;53.540;10.042;2024-03-23T04:28:47;30.67;;;4.97;;
4385;SDS011;2207;53.540;10.042;2024-03-23T04:31:14;30.97;;;4.57;;
4385;SDS011;2207;53.540;10.042;2024-03-23T04:33:40;28.30;;;4.73;;
4385;SDS011;2207;53.540;10.042;2024-03-23T04:36:07;34.57;;;6.10;;
4385;SDS011;2207;53.540;10.042;2024-03-23T04:38:35;35.07;;;5.47;;
4385;SDS011;2207;53.540;10.042;2024-03-23T04:41:03;30.33;;;5.10;;
4385;SDS011;2207;53.540;10.042;2024-03-23T04:43:30;28.13;;;5.57;;
4385;SDS011;2207;53.540;10.042;2024-03-23T04:45:56;22.77;;;4.33;;
4385;SDS011;2207;53.540;10.042;2024-03-23T04:48:23;30.83;;;5.00;;
4385;SDS011;2207;53.540;10.042;2024-03-23T04:50:54;35.37;;;5.43;;
4385;SDS011;2207;53.540;10.042;2024-03-23T04:53:22;27.13;;;5.17;;
4385;SDS011;2207;53.540;10.042;2024-03-23T04:55:53;32.83;;;5.57;;
4385;SDS011;2207;53.540;10.042;2024-03-23T04:58:21;25.57;;;4.40;;
4385;SDS011;2207;53.540;10.042;2024-03-23T05:00:48;30.10;;;4.73;;
4385;SDS011;2207;53.540;10.042;2024-03-23T05:03:19;32.10;;;5.03;;
4385;SDS011;2207;53.540;10.042;2024-03-23T05:05:46;30.00;;;5.57;;
4385;SDS011;2207;53.540;10.042;2024-03-23T05:08:12;32.17;;;5.33;;
4385;SDS011;2207;53.540;10.042;2024-03-23T05:10:39;27.13;;;4.83;;
4385;SDS011;2207;53.540;10.042;2024-03-23T05:13:06;19.77;;;5.00;;
4385;SDS011;2207;53.540;10.042;2024-03-23T05:15:34;24.57;;;4.77;;
4385;SDS011;2207;53.540;10.042;2024-03-23T05:18:00;32.80;;;4.73;;
4385;SDS011;2207;53.540;10.042;2024-03-23T05:20:27;30.27;;;5.07;;
4385;SDS011;2207;53.540;10.042;2024-03-23T05:22:54;28.07;;;5.03;;
4385;SDS011;2207;53.540;10.042;2024-03-23T05:25:21;33.53;;;4.67;;
4385;SDS011;2207;53.540;10.042;2024-03-23T05:27:47;27.70;;;4.60;;
4385;SDS011;2207;53.540;10.042;2024-03-23T05:30:14;29.10;;;5.50;;
4385;SDS011;2207;53.540;10.042;2024-03-23T05:32:42;27.37;;;4.73;;
4385;SDS011;2207;53.540;10.042;2024-03-23T05:35:09;22.30;;;4.07;;
4385;SDS011;2207;53.540;10.042;2024-03-23T05:37:36;25.67;;;4.73;;
4385;SDS011;2207;53.540;10.042;2024-03-23T05:40:04;27.70;;;5.40;;
4385;SDS011;2207;53.540;10.042;2024-03-23T05:42:30;30.90;;;5.20;;
4385;SDS011;2207;53.540;10.042;2024-03-23T05:44:57;26.47;;;4.70;;
4385;SDS011;2207;53.540;10.042;2024-03-23T05:47:23;34.83;;;5.13;;
4385;SDS011;2207;53.540;10.042;2024-03-23T05:49:51;30.70;;;5.23;;
4385;SDS011;2207;53.540;10.042;2024-03-23T05:52:17;21.87;;;4.23;;
4385;SDS011;2207;53.540;10.042;2024-03-23T05:54:46;24.23;;;4.17;;
4385;SDS011;2207;53.540;10.042;2024-03-23T05:57:11;23.00;;;4.60;;
4385;SDS011;2207;53.540;10.042;2024-03-23T05:59:38;25.30;;;4.33;;
4385;SDS011;2207;53.540;10.042;2024-03-23T06:02:04;27.93;;;4.90;;
4385;SDS011;2207;53.540;10.042;2024-03-23T06:04:32;22.87;;;4.10;;
4385;SDS011;2207;53.540;10.042;2024-03-23T06:06:59;23.23;;;5.17;;
4385;SDS011;2207;53.540;10.042;2024-03-23T06:09:26;34.27;;;4.47;;
4385;SDS011;2207;53.540;10.042;2024-03-23T06:11:52;25.47;;;4.33;;
4385;SDS011;2207;53.540;10.042;2024-03-23T06:14:19;23.43;;;4.37;;
4385;SDS011;2207;53.540;10.042;2024-03-23T06:16:44;32.03;;;5.43;;
4385;SDS011;2207;53.540;10.042;2024-03-23T06:19:14;29.57;;;4.67;;
4385;SDS011;2207;53.540;10.042;2024-03-23T06:21:42;26.27;;;4.77;;
4385;SDS011;2207;53.540;10.042;2024-03-23T06:24:11;19.17;;;3.93;;
4385;SDS011;2207;53.540;10.042;2024-03-23T06:26:38;27.80;;;4.40;;
4385;SDS011;2207;53.540;10.042;2024-03-23T06:29:05;26.73;;;4.83;;
4385;SDS011;2207;53.540;10.042;2024-03-23T06:31:31;19.27;;;3.60;;
4385;SDS011;2207;53.540;10.042;2024-03-23T06:33:57;22.07;;;4.50;;
4385;SDS011;2207;53.540;10.042;2024-03-23T06:36:23;19.20;;;4.47;;
4385;SDS011;2207;53.540;10.042;2024-03-23T06:38:50;20.57;;;4.60;;
4385;SDS011;2207;53.540;10.042;2024-03-23T06:41:18;23.33;;;5.20;;
4385;SDS011;2207;53.540;10.042;2024-03-23T06:43:45;19.43;;;4.43;;
4385;SDS011;2207;53.540;10.042;2024-03-23T06:46:11;23.10;;;4.53;;
4385;SDS011;2207;53.540;10.042;2024-03-23T06:48:38;25.67;;;5.10;;
4385;SDS011;2207;53.540;10.042;2024-03-23T06:51:04;24.50;;;4.40;;
4385;SDS011;2207;53.540;10.042;2024-03-23T06:53:31;17.70;;;4.70;;
4385;SDS011;2207;53.540;10.042;2024-03-23T06:55:57;26.23;;;4.70;;
4385;SDS011;2207;53.540;10.042;2024-03-23T06:58:25;22.10;;;4.37;;
4385;SDS011;2207;53.540;10.042;2024-03-23T07:00:51;20.37;;;3.80;;
4385;SDS011;2207;53.540;10.042;2024-03-23T07:03:18;19.20;;;4.37;;
4385;SDS011;2207;53.540;10.042;2024-03-23T07:05:45;21.67;;;4.60;;
4385;SDS011;2207;53.540;10.042;2024-03-23T07:08:12;21.13;;;4.07;;
4385;SDS011;2207;53.540;10.042;2024-03-23T07:10:39;19.17;;;4.37;;
4385;SDS011;2207;53.540;10.042;2024-03-23T07:13:06;26.83;;;4.60;;
4385;SDS011;2207;53.540;10.042;2024-03-23T07:15:33;19.20;;;4.27;;
4385;SDS011;2207;53.540;10.042;2024-03-23T07:18:00;21.17;;;4.17;;
4385;SDS011;2207;53.540;10.042;2024-03-23T07:20:26;17.77;;;3.90;;
4385;SDS011;2207;53.540;10.042;2024-03-23T07:22:55;16.53;;;4.37;;
4385;SDS011;2207;53.540;10.042;2024-03-23T07:25:21;18.53;;;4.13;;
4385;SDS011;2207;53.540;10.042;2024-03-23T07:27:48;28.67;;;4.70;;
4385;SDS011;2207;53.540;10.042;2024-03-23T07:30:14;23.37;;;4.57;;
4385;SDS011;2207;53.540;10.042;2024-03-23T07:32:45;20.87;;;4.20;;
4385;SDS011;2207;53.540;10.042;2024-03-23T07:35:11;18.53;;;4.30;;
4385;SDS011;2207;53.540;10.042;2024-03-23T07:37:38;20.17;;;3.50;;
4385;SDS011;2207;53.540;10.042;2024-03-23T07:40:04;22.33;;;4.90;;
4385;SDS011;2207;53.540;10.042;2024-03-23T07:42:32;21.47;;;4.17;;
4385;SDS011;2207;53.540;10.042;2024-03-23T07:44:57;14.67;;;3.70;;
4385;SDS011;2207;53.540;10.042;2024-03-23T07:47:24;22.13;;;4.20;;
4385;SDS011;2207;53.540;10.042;2024-03-23T07:49:52;14.97;;;3.27;;
4385;SDS011;2207;53.540;10.042;2024-03-23T07:52:19;15.63;;;3.77;;
4385;SDS011;2207;53.540;10.042;2024-03-23T07:54:45;20.90;;;3.77;;
4385;SDS011;2207;53.540;10.042;2024-03-23T07:57:12;27.77;;;3.50;;
4385;SDS011;2207;53.540;10.042;2024-03-23T07:59:38;20.17;;;3.80;;
4385;SDS011;2207;53.540;10.042;2024-03-23T08:02:05;19.27;;;3.83;;
4385;SDS011;2207;53.540;10.042;2024-03-23T08:04:31;17.10;;;3.80;;
4385;SDS011;2207;53.540;10.042;2024-03-23T08:06:59;20.90;;;3.93;;
4385;SDS011;2207;53.540;10.042;2024-03-23T08:09:25;14.43;;;3.57;;
4385;SDS011;2207;53.540;10.042;2024-03-23T08:11:52;22.17;;;3.87;;
4385;SDS011;2207;53.540;10.042;2024-03-23T08:14:19;14.10;;;3.60;;
4385;SDS011;2207;53.540;10.042;2024-03-23T08:16:46;26.93;;;3.63;;
4385;SDS011;2207;53.540;10.042;2024-03-23T08:19:14;23.20;;;4.50;;
4385;SDS011;2207;53.540;10.042;2024-03-23T08:21:41;15.07;;;4.27;;
4385;SDS011;2207;53.540;10.042;2024-03-23T08:24:09;21.63;;;4.40;;
4385;SDS011;2207;53.540;10.042;2024-03-23T08:26:35;18.57;;;4.40;;
4385;SDS011;2207;53.540;10.042;2024-03-23T08:29:02;22.73;;;4.00;;
4385;SDS011;2207;53.540;10.042;2024-03-23T08:31:30;18.03;;;4.60;;
4385;SDS011;2207;53.540;10.042;2024-03-23T08:33:56;20.17;;;4.10;;
4385;SDS011;2207;53.540;10.042;2024-03-23T08:36:22;18.77;;;3.50;;
4385;SDS011;2207;53.540;10.042;2024-03-23T08:38:49;20.13;;;3.13;;
4385;SDS011;2207;53.540;10.042;2024-03-23T08:41:20;13.87;;;3.27;;
4385;SDS011;2207;53.540;10.042;2024-03-23T08:43:47;14.73;;;3.17;;
4385;SDS011;2207;53.540;10.042;2024-03-23T08:46:13;12.53;;;3.40;;
4385;SDS011;2207;53.540;10.042;2024-03-23T08:48:41;19.67;;;3.97;;
4385;SDS011;2207;53.540;10.042;2024-03-23T08:51:09;24.37;;;4.30;;
4385;SDS011;2207;53.540;10.042;2024-03-23T08:53:36;18.80;;;3.63;;
4385;SDS011;2207;53.540;10.042;2024-03-23T08:56:03;21.03;;;3.30;;
4385;SDS011;2207;53.540;10.042;2024-03-23T08:58:33;19.43;;;3.70;;
4385;SDS011;2207;53.540;10.042;2024-03-23T09:01:02;15.53;;;3.63;;
4385;SDS011;2207;53.540;10.042;2024-03-23T09:03:33;19.23;;;4.30;;
4385;SDS011;2207;53.540;10.042;2024-03-23T09:06:00;17.47;;;3.37;;
4385;SDS011;2207;53.540;10.042;2024-03-23T09:08:27;18.83;;;3.87;;
4385;SDS011;2207;53.540;10.042;2024-03-23T09:10:53;25.47;;;4.27;;
4385;SDS011;2207;53.540;10.042;2024-03-23T09:13:20;15.67;;;3.67;;
4385;SDS011;2207;53.540;10.042;2024-03-23T09:15:48;16.53;;;3.37;;
4385;SDS011;2207;53.540;10.042;2024-03-23T09:18:16;17.97;;;4.23;;
4385;SDS011;2207;53.540;10.042;2024-03-23T09:20:42;16.60;;;4.07;;
4385;SDS011;2207;53.540;10.042;2024-03-23T09:23:09;11.77;;;2.83;;
4385;SDS011;2207;53.540;10.042;2024-03-23T09:25:38;14.07;;;3.07;;
4385;SDS011;2207;53.540;10.042;2024-03-23T09:28:06;10.50;;;3.20;;
4385;SDS011;2207;53.540;10.042;2024-03-23T09:30:33;12.67;;;2.80;;
4385;SDS011;2207;53.540;10.042;2024-03-23T09:33:02;12.90;;;3.00;;
4385;SDS011;2207;53.540;10.042;2024-03-23T09:35:29;14.57;;;3.23;;
4385;SDS011;2207;53.540;10.042;2024-03-23T09:37:55;16.10;;;2.40;;
4385;SDS011;2207;53.540;10.042;2024-03-23T09:40:22;14.93;;;2.63;;
4385;SDS011;2207;53.540;10.042;2024-03-23T09:42:49;20.50;;;3.13;;
4385;SDS011;2207;53.540;10.042;2024-03-23T09:45:17;11.50;;;2.40;;
4385;SDS011;2207;53.540;10.042;2024-03-23T09:47:47;14.37;;;2.80;;
4385;SDS011;2207;53.540;10.042;2024-03-23T09:50:14;11.43;;;3.07;;
4385;SDS011;2207;53.540;10.042;2024-03-23T09:52:41;15.63;;;3.33;;
4385;SDS011;2207;53.540;10.042;2024-03-23T09:55:07;15.77;;;3.17;;
4385;SDS011;2207;53.540;10.042;2024-03-23T09:57:35;13.03;;;2.83;;
4385;SDS011;2207;53.540;10.042;2024-03-23T10:00:00;14.83;;;3.10;;
4385;SDS011;2207;53.540;10.042;2024-03-23T10:02:27;13.80;;;2.73;;
4385;SDS011;2207;53.540;10.042;2024-03-23T10:04:54;11.77;;;3.33;;
4385;SDS011;2207;53.540;10.042;2024-03-23T10:07:25;12.47;;;2.60;;
4385;SDS011;2207;53.540;10.042;2024-03-23T10:09:53;12.10;;;2.77;;
4385;SDS011;2207;53.540;10.042;2024-03-23T10:12:20;13.97;;;2.57;;
4385;SDS011;2207;53.540;10.042;2024-03-23T10:14:46;13.30;;;3.10;;
4385;SDS011;2207;53.540;10.042;2024-03-23T10:17:14;12.17;;;2.73;;
4385;SDS011;2207;53.540;10.042;2024-03-23T10:19:42;13.40;;;2.53;;
4385;SDS011;2207;53.540;10.042;2024-03-23T10:22:13;10.60;;;2.67;;
4385;SDS011;2207;53.540;10.042;2024-03-23T10:24:41;13.27;;;2.67;;
4385;SDS011;2207;53.540;10.042;2024-03-23T10:27:08;11.53;;;2.30;;
4385;SDS011;2207;53.540;10.042;2024-03-23T10:29:34;14.70;;;2.70;;
4385;SDS011;2207;53.540;10.042;2024-03-23T10:32:07;12.53;;;2.63;;
4385;SDS011;2207;53.540;10.042;2024-03-23T10:34:34;12.43;;;2.57;;
4385;SDS011;2207;53.540;10.042;2024-03-23T10:37:01;10.47;;;2.07;;
4385;SDS011;2207;53.540;10.042;2024-03-23T10:39:29;8.33;;;1.63;;
4385;SDS011;2207;53.540;10.042;2024-03-23T10:41:59;9.77;;;2.33;;
4385;SDS011;2207;53.540;10.042;2024-03-23T10:44:27;7.80;;;1.90;;
4385;SDS011;2207;53.540;10.042;2024-03-23T10:46:56;10.13;;;2.30;;
4385;SDS011;2207;53.540;10.042;2024-03-23T10:49:25;9.50;;;2.60;;
4385;SDS011;2207;53.540;10.042;2024-03-23T10:51:54;10.63;;;2.40;;
4385;SDS011;2207;53.540;10.042;2024-03-23T10:54:21;11.83;;;2.20;;
4385;SDS011;2207;53.540;10.042;2024-03-23T10:56:50;9.53;;;2.47;;
4385;SDS011;2207;53.540;10.042;2024-03-23T10:59:20;8.17;;;2.80;;
4385;SDS011;2207;53.540;10.042;2024-03-23T11:01:56;8.07;;;2.57;;
4385;SDS011;2207;53.540;10.042;2024-03-23T11:04:30;12.23;;;2.83;;
4385;SDS011;2207;53.540;10.042;2024-03-23T11:06:57;11.07;;;2.03;;
4385;SDS011;2207;53.540;10.042;2024-03-23T11:09:39;13.67;;;2.03;;
4385;SDS011;2207;53.540;10.042;2024-03-23T11:12:17;12.53;;;2.13;;
4385;SDS011;2207;53.540;10.042;2024-03-23T11:14:55;9.20;;;2.00;;
4385;SDS011;2207;53.540;10.042;2024-03-23T11:17:24;9.07;;;2.40;;
4385;SDS011;2207;53.540;10.042;2024-03-23T11:19:53;11.07;;;2.40;;
4385;SDS011;2207;53.540;10.042;2024-03-23T11:22:43;10.77;;;2.20;;
4385;SDS011;2207;53.540;10.042;2024-03-23T11:25:18;6.83;;;1.67;;
4385;SDS011;2207;53.540;10.042;2024-03-23T11:27:47;9.37;;;2.13;;
4385;SDS011;2207;53.540;10.042;2024-03-23T11:30:16;6.33;;;1.60;;
4385;SDS011;2207;53.540;10.042;2024-03-23T11:32:44;6.50;;;1.90;;
4385;SDS011;2207;53.540;10.042;2024-03-23T11:35:24;10.43;;;1.80;;
4385;SDS011;2207;53.540;10.042;2024-03-23T11:38:04;3.87;;;1.50;;
4385;SDS011;2207;53.540;10.042;2024-03-23T11:40:31;8.03;;;1.80;;
4385;SDS011;2207;53.540;10.042;2024-03-23T11:42:59;7.97;;;2.13;;
4385;SDS011;2207;53.540;10.042;2024-03-23T11:45:27;6.53;;;1.80;;
4385;SDS011;2207;53.540;10.042;2024-03-23T11:48:01;8.17;;;1.80;;
4385;SDS011;2207;53.540;10.042;2024-03-23T11:50:28;6.27;;;1.97;;
4385;SDS011;2207;53.540;10.042;2024-03-23T11:53:05;5.13;;;1.50;;
4385;SDS011;2207;53.540;10.042;2024-03-23T11:55:38;10.37;;;1.80;;
4385;SDS011;2207;53.540;10.042;2024-03-23T11:58:06;12.40;;;2.50;;
4385;SDS011;2207;53.540;10.042;2024-03-23T12:00:34;10.47;;;2.67;;
4385;SDS011;2207;53.540;10.042;2024-03-23T12:03:01;12.07;;;1.73;;
4385;SDS011;2207;53.540;10.042;2024-03-23T12:05:27;5.53;;;1.47;;
4385;SDS011;2207;53.540;10.042;2024-03-23T12:07:54;11.10;;;2.07;;
4385;SDS011;2207;53.540;10.042;2024-03-23T12:10:20;5.40;;;1.97;;
4385;SDS011;2207;53.540;10.042;2024-03-23T12:12:58;5.17;;;1.77;;
4385;SDS011;2207;53.540;10.042;2024-03-23T12:15:25;5.73;;;1.20;;
4385;SDS011;2207;53.540;10.042;2024-03-23T12:17:53;2.00;;;1.00;;
4385;SDS011;2207;53.540;10.042;2024-03-23T12:20:31;5.80;;;1.20;;
4385;SDS011;2207;53.540;10.042;2024-03-23T12:23:04;3.57;;;1.07;;
4385;SDS011;2207;53.540;10.042;2024-03-23T12:25:34;2.70;;;1.10;;
4385;SDS011;2207;53.540;10.042;2024-03-23T12:28:01;2.37;;;1.20;;
4385;SDS011;2207;53.540;10.042;2024-03-23T12:30:27;4.43;;;1.30;;
4385;SDS011;2207;53.540;10.042;2024-03-23T12:32:56;5.27;;;1.80;;
4385;SDS011;2207;53.540;10.042;2024-03-23T12:35:22;7.00;;;2.10;;
4385;SDS011;2207;53.540;10.042;2024-03-23T12:37:49;6.60;;;1.80;;
4385;SDS011;2207;53.540;10.042;2024-03-23T12:40:15;7.10;;;2.00;;
4385;SDS011;2207;53.540;10.042;2024-03-23T12:42:42;4.70;;;1.60;;
4385;SDS011;2207;53.540;10.042;2024-03-23T12:45:08;2.67;;;1.30;;
4385;SDS011;2207;53.540;10.042;2024-03-23T12:47:35;3.63;;;1.30;;
4385;SDS011;2207;53.540;10.042;2024-03-23T12:50:02;2.03;;;0.93;;
4385;SDS011;2207;53.540;10.042;2024-03-23T12:52:30;1.27;;;0.63;;
4385;SDS011;2207;53.540;10.042;2024-03-23T12:54:56;2.87;;;0.93;;
4385;SDS011;2207;53.540;10.042;2024-03-23T12:57:23;1.33;;;0.63;;
4385;SDS011;2207;53.540;10.042;2024-03-23T12:59:50;1.90;;;0.70;;
4385;SDS011;2207;53.540;10.042;2024-03-23T13:02:18;1.40;;;0.83;;
4385;SDS011;2207;53.540;10.042;2024-03-23T13:04:44;5.03;;;1.40;;
4385;SDS011;2207;53.540;10.042;2024-03-23T13:07:13;4.27;;;1.40;;
4385;SDS011;2207;53.540;10.042;2024-03-23T13:09:39;4.23;;;0.90;;
4385;SDS011;2207;53.540;10.042;2024-03-23T13:12:06;4.30;;;1.03;;
4385;SDS011;2207;53.540;10.042;2024-03-23T13:14:32;5.13;;;1.17;;
4385;SDS011;2207;53.540;10.042;2024-03-23T13:17:00;5.50;;;1.10;;
4385;SDS011;2207;53.540;10.042;2024-03-23T13:19:27;2.60;;;1.07;;
4385;SDS011;2207;53.540;10.042;2024-03-23T13:21:55;7.93;;;1.50;;
4385;SDS011;2207;53.540;10.042;2024-03-23T13:24:23;4.27;;;1.10;;
4385;SDS011;2207;53.540;10.042;2024-03-23T13:26:51;2.37;;;0.70;;
4385;SDS011;2207;53.540;10.042;2024-03-23T13:29:17;2.47;;;0.93;;
4385;SDS011;2207;53.540;10.042;2024-03-23T13:31:45;5.20;;;1.30;;
4385;SDS011;2207;53.540;10.042;2024-03-23T13:34:11;4.60;;;1.17;;
4385;SDS011;2207;53.540;10.042;2024-03-23T13:36:40;6.27;;;1.60;;
4385;SDS011;2207;53.540;10.042;2024-03-23T13:39:05;4.10;;;1.20;;
4385;SDS011;2207;53.540;10.042;2024-03-23T13:41:38;4.67;;;1.57;;
4385;SDS011;2207;53.540;10.042;2024-03-23T13:44:05;3.90;;;1.10;;
4385;SDS011;2207;53.540;10.042;2024-03-23T13:46:31;6.43;;;1.40;;
4385;SDS011;2207;53.540;10.042;2024-03-23T13:48:57;5.77;;;1.20;;
4385;SDS011;2207;53.540;10.042;2024-03-23T13:51:25;4.40;;;1.30;;
4385;SDS011;2207;53.540;10.042;2024-03-23T13:53:52;3.93;;;1.20;;
4385;SDS011;2207;53.540;10.042;2024-03-23T13:56:19;5.93;;;1.27;;
4385;SDS011;2207;53.540;10.042;2024-03-23T13:58:46;1.90;;;0.70;;
4385;SDS011;2207;53.540;10.042;2024-03-23T14:01:14;1.90;;;0.73;;
4385;SDS011;2207;53.540;10.042;2024-03-23T14:03:40;2.90;;;0.80;;
4385;SDS011;2207;53.540;10.042;2024-03-23T14:06:07;1.73;;;0.70;;
4385;SDS011;2207;53.540;10.042;2024-03-23T14:08:33;3.37;;;0.73;;
4385;SDS011;2207;53.540;10.042;2024-03-23T14:11:01;2.27;;;0.90;;
4385;SDS011;2207;53.540;10.042;2024-03-23T14:13:29;1.80;;;0.70;;
4385;SDS011;2207;53.540;10.042;2024-03-23T14:15:57;2.70;;;0.90;;
4385;SDS011;2207;53.540;10.042;2024-03-23T14:18:23;1.70;;;0.80;;
4385;SDS011;2207;53.540;10.042;2024-03-23T14:20:51;1.23;;;1.00;;
4385;SDS011;2207;53.540;10.042;2024-03-23T14:23:21;3.80;;;1.03;;
4385;SDS011;2207;53.540;10.042;2024-03-23T14:25:48;4.63;;;1.10;;
4385;SDS011;2207;53.540;10.042;2024-03-23T14:28:14;3.97;;;1.00;;
4385;SDS011;2207;53.540;10.042;2024-03-23T14:30:41;4.23;;;1.10;;
4385;SDS011;2207;53.540;10.042;2024-03-23T14:33:08;6.13;;;1.00;;
4385;SDS011;2207;53.540;10.042;2024-03-23T14:35:35;4.13;;;1.20;;
4385;SDS011;2207;53.540;10.042;2024-03-23T14:38:01;2.70;;;1.10;;
4385;SDS011;2207;53.540;10.042;2024-03-23T14:40:28;6.67;;;1.43;;
4385;SDS011;2207;53.540;10.042;2024-03-23T14:42:54;2.23;;;1.20;;
4385;SDS011;2207;53.540;10.042;2024-03-23T14:45:22;4.30;;;1.17;;
4385;SDS011;2207;53.540;10.042;2024-03-23T14:47:49;5.90;;;1.13;;
4385;SDS011;2207;53.540;10.042;2024-03-23T14:50:17;9.90;;;1.50;;
4385;SDS011;2207;53.540;10.042;2024-03-23T14:52:44;6.27;;;1.80;;
4385;SDS011;2207;53.540;10.042;2024-03-23T14:55:11;4.40;;;1.17;;
4385;SDS011;2207;53.540;10.042;2024-03-23T14:57:37;6.87;;;1.20;;
4385;SDS011;2207;53.540;10.042;2024-03-23T15:00:06;5.00;;;1.50;;
4385;SDS011;2207;53.540;10.042;2024-03-23T15:02:33;4.93;;;1.10;;
4385;SDS011;2207;53.540;10.042;2024-03-23T15:05:00;8.07;;;1.60;;
4385;SDS011;2207;53.540;10.042;2024-03-23T15:07:27;4.33;;;1.30;;
4385;SDS011;2207;53.540;10.042;2024-03-23T15:09:54;3.30;;;1.20;;
4385;SDS011;2207;53.540;10.042;2024-03-23T15:12:20;4.60;;;1.30;;
4385;SDS011;2207;53.540;10.042;2024-03-23T15:14:47;5.90;;;1.70;;
4385;SDS011;2207;53.540;10.042;2024-03-23T15:17:13;3.10;;;1.07;;
4385;SDS011;2207;53.540;10.042;2024-03-23T15:19:40;2.10;;;0.97;;
4385;SDS011;2207;53.540;10.042;2024-03-23T15:22:07;1.83;;;0.73;;
4385;SDS011;2207;53.540;10.042;2024-03-23T15:24:36;2.43;;;0.80;;
4385;SDS011;2207;53.540;10.042;2024-03-23T15:27:02;3.93;;;0.90;;
4385;SDS011;2207;53.540;10.042;2024-03-23T15:29:29;2.57;;;0.70;;
4385;SDS011;2207;53.540;10.042;2024-03-23T15:31:56;1.50;;;0.70;;
4385;SDS011;2207;53.540;10.042;2024-03-23T15:34:23;0.87;;;0.60;;
4385;SDS011;2207;53.540;10.042;2024-03-23T15:36:49;1.37;;;0.80;;
4385;SDS011;2207;53.540;10.042;2024-03-23T15:39:16;0.83;;;0.60;;
4385;SDS011;2207;53.540;10.042;2024-03-23T15:41:44;3.90;;;0.70;;
4385;SDS011;2207;53.540;10.042;2024-03-23T15:44:11;1.17;;;0.70;;
4385;SDS011;2207;53.540;10.042;2024-03-23T15:46:37;2.07;;;0.90;;
4385;SDS011;2207;53.540;10.042;2024-03-23T15:49:04;2.20;;;1.03;;